createdAt,value
2023-04-19T00:01:32.667Z,6.30
2023-04-19T00:04:00.608Z,6.10
2023-04-19T00:06:30.503Z,5.80
2023-04-19T00:08:58.319Z,5.90
2023-04-19T00:11:26.116Z,6.70
2023-04-19T00:13:53.963Z,6.00
2023-04-19T00:16:21.761Z,7.00
2023-04-19T00:18:49.570Z,6.10
2023-04-19T00:21:17.369Z,6.20
2023-04-19T00:23:45.223Z,6.30
2023-04-19T00:26:15.719Z,5.60
2023-04-19T00:28:43.550Z,5.60
2023-04-19T00:31:11.665Z,5.10
2023-04-19T00:33:39.488Z,4.70
2023-04-19T00:36:07.679Z,4.80
2023-04-19T00:38:35.470Z,4.60
2023-04-19T00:41:03.235Z,4.20
2023-04-19T00:43:31.028Z,4.30
2023-04-19T00:45:59.151Z,4.20
2023-04-19T00:48:26.972Z,4.10
2023-04-19T00:50:55.171Z,4.30
2023-04-19T00:53:23.044Z,3.80
2023-04-19T00:55:51.498Z,3.70
2023-04-19T00:58:19.365Z,4.30
2023-04-19T01:00:47.168Z,3.80
2023-04-19T01:03:17.092Z,4.30
2023-04-19T01:05:45.001Z,4.30
2023-04-19T01:08:12.753Z,4.20
2023-04-19T01:10:40.642Z,4.00
2023-04-19T01:13:08.476Z,4.70
2023-04-19T01:15:36.857Z,4.00
2023-04-19T01:18:04.885Z,3.70
2023-04-19T01:20:32.816Z,3.70
2023-04-19T01:23:00.707Z,3.60
2023-04-19T01:25:28.652Z,3.70
2023-04-19T01:27:56.580Z,3.70
2023-04-19T01:30:24.449Z,3.60
2023-04-19T01:32:52.227Z,3.70
2023-04-19T01:35:21.398Z,3.70
2023-04-19T01:37:49.235Z,3.50
2023-04-19T01:40:17.385Z,3.50
2023-04-19T01:42:45.257Z,3.50
2023-04-19T01:45:13.095Z,3.80
2023-04-19T01:47:40.902Z,3.50
2023-04-19T01:50:09.394Z,3.10
2023-04-19T01:52:37.235Z,3.70
2023-04-19T01:55:05.593Z,3.60
2023-04-19T01:57:33.442Z,3.00
2023-04-19T02:00:02.411Z,3.50
2023-04-19T02:02:30.410Z,3.80
2023-04-19T02:04:58.366Z,3.30
2023-04-19T02:07:26.187Z,3.50
2023-04-19T02:09:53.857Z,3.70
2023-04-19T02:12:21.667Z,3.50
2023-04-19T02:14:49.642Z,3.30
2023-04-19T02:17:17.497Z,3.50
2023-04-19T02:19:45.311Z,3.50
2023-04-19T02:22:13.038Z,3.80
2023-04-19T02:24:40.827Z,3.70
2023-04-19T02:27:08.720Z,3.80
2023-04-19T02:29:37.985Z,3.30
2023-04-19T02:32:07.055Z,3.50
2023-04-19T02:34:36.018Z,3.60
2023-04-19T02:37:03.741Z,3.30
2023-04-19T02:39:31.808Z,3.80
2023-04-19T02:41:59.796Z,3.50
2023-04-19T02:44:27.726Z,3.70
2023-04-19T02:46:55.597Z,3.70
2023-04-19T02:49:23.337Z,3.60
2023-04-19T02:51:52.447Z,3.20
2023-04-19T02:54:20.285Z,4.00
2023-04-19T02:56:48.022Z,3.90
2023-04-19T02:59:15.775Z,3.50
2023-04-19T03:01:43.685Z,3.80
2023-04-19T03:04:11.784Z,3.50
2023-04-19T03:06:39.769Z,3.40
2023-04-19T03:09:07.469Z,3.60
2023-04-19T03:11:35.829Z,3.90
2023-04-19T03:14:03.598Z,3.20
2023-04-19T03:16:31.340Z,3.20
2023-04-19T03:18:59.185Z,3.90
2023-04-19T03:21:29.172Z,3.30
2023-04-19T03:23:57.031Z,3.90
2023-04-19T03:26:24.830Z,3.50
2023-04-19T03:28:55.822Z,4.10
2023-04-19T03:31:23.650Z,3.90
2023-04-19T03:33:51.511Z,3.60
2023-04-19T03:36:19.276Z,3.60
2023-04-19T03:38:47.031Z,3.40
2023-04-19T03:41:24.822Z,3.60
2023-04-19T03:43:52.695Z,3.50
2023-04-19T03:46:20.542Z,3.60
2023-04-19T03:48:48.357Z,4.00
2023-04-19T03:51:16.803Z,3.70
2023-04-19T03:53:44.577Z,3.70
2023-04-19T03:56:12.409Z,3.60
2023-04-19T03:58:41.562Z,3.90
2023-04-19T04:01:21.836Z,3.90
2023-04-19T04:03:50.078Z,3.70
2023-04-19T04:06:18.170Z,3.40
2023-04-19T04:08:46.311Z,3.50
2023-04-19T04:11:14.143Z,3.70
2023-04-19T04:13:43.376Z,3.40
2023-04-19T04:16:11.202Z,3.40
2023-04-19T04:18:39.063Z,3.80
2023-04-19T04:21:07.524Z,4.00
2023-04-19T04:23:35.400Z,4.20
2023-04-19T04:26:04.982Z,3.50
2023-04-19T04:28:33.412Z,3.70
2023-04-19T04:31:01.537Z,3.90
2023-04-19T04:33:29.377Z,3.80
2023-04-19T04:35:59.158Z,4.00
2023-04-19T04:38:27.504Z,3.80
2023-04-19T04:40:55.978Z,4.00
2023-04-19T04:43:25.850Z,4.70
2023-04-19T04:45:55.733Z,3.50
2023-04-19T04:48:24.301Z,4.10
2023-04-19T04:50:52.088Z,4.30
2023-04-19T04:53:20.443Z,4.30
2023-04-19T04:55:48.231Z,4.00
2023-04-19T04:58:16.569Z,4.30
2023-04-19T05:00:44.492Z,3.90
2023-04-19T05:03:12.646Z,4.10
2023-04-19T05:05:44.452Z,5.50
2023-04-19T05:08:13.134Z,4.10
2023-04-19T05:10:41.161Z,4.10
2023-04-19T05:13:08.970Z,4.20
2023-04-19T05:15:36.757Z,4.70
2023-04-19T05:18:05.588Z,5.10
2023-04-19T05:20:36.330Z,5.00
2023-04-19T05:23:04.115Z,4.40
2023-04-19T05:25:32.039Z,4.30
2023-04-19T05:28:00.408Z,5.50
2023-04-19T05:30:28.294Z,5.00
2023-04-19T05:32:56.931Z,5.00
2023-04-19T05:35:24.735Z,5.20
2023-04-19T05:37:52.572Z,7.10
2023-04-19T05:40:20.664Z,5.40
2023-04-19T05:42:48.492Z,5.60
2023-04-19T05:45:18.495Z,6.10
2023-04-19T05:47:46.567Z,6.00
2023-04-19T05:50:17.976Z,6.40
2023-04-19T05:52:46.360Z,6.90
2023-04-19T05:55:14.140Z,10.50
2023-04-19T05:57:42.049Z,6.30
2023-04-19T06:00:16.752Z,6.70
2023-04-19T06:02:44.777Z,6.60
2023-04-19T06:05:13.001Z,6.90
2023-04-19T06:07:47.267Z,7.50
2023-04-19T06:10:23.677Z,6.70
2023-04-19T06:12:51.610Z,7.10
2023-04-19T06:15:19.548Z,6.90
2023-04-19T06:17:47.480Z,7.40
2023-04-19T06:20:22.316Z,7.90
2023-04-19T06:22:50.822Z,7.50
2023-04-19T06:25:18.831Z,7.10
2023-04-19T06:27:46.800Z,7.40
2023-04-19T06:30:14.890Z,10.20
2023-04-19T06:32:42.839Z,7.50
2023-04-19T06:35:11.187Z,8.20
2023-04-19T06:37:39.158Z,8.40
2023-04-19T06:40:08.459Z,7.70
2023-04-19T06:42:36.256Z,7.50
2023-04-19T06:45:04.978Z,9.00
2023-04-19T06:47:34.810Z,7.20
2023-04-19T06:50:03.684Z,7.20
2023-04-19T06:52:31.523Z,7.10
2023-04-19T06:54:59.346Z,6.90
2023-04-19T06:57:27.091Z,6.80
2023-04-19T06:59:55.649Z,6.70
2023-04-19T07:02:23.611Z,6.40
2023-04-19T07:04:51.652Z,6.30
2023-04-19T07:07:19.501Z,5.50
2023-04-19T07:09:47.300Z,6.20
2023-04-19T07:12:15.160Z,6.30
2023-04-19T07:14:42.981Z,6.50
2023-04-19T07:17:10.923Z,5.80
2023-04-19T07:19:38.799Z,5.90
2023-04-19T07:22:06.569Z,6.00
2023-04-19T07:24:34.388Z,7.00
2023-04-19T07:27:02.638Z,7.20
2023-04-19T07:29:30.591Z,7.40
2023-04-19T07:32:00.036Z,7.90
2023-04-19T07:34:27.909Z,6.20
2023-04-19T07:36:55.832Z,7.20
2023-04-19T07:39:23.868Z,6.70
2023-04-19T07:41:51.826Z,6.90
2023-04-19T07:44:20.218Z,6.40
2023-04-19T07:46:48.167Z,6.60
2023-04-19T07:49:16.054Z,7.30
2023-04-19T07:51:43.923Z,7.30
2023-04-19T07:54:11.741Z,7.60
2023-04-19T07:56:39.654Z,7.10
2023-04-19T07:59:09.275Z,7.90
2023-04-19T08:01:37.677Z,7.40
2023-04-19T08:04:06.201Z,6.90
2023-04-19T08:06:34.558Z,7.10
2023-04-19T08:09:03.041Z,7.40
2023-04-19T08:11:31.387Z,6.80
2023-04-19T08:14:11.527Z,5.90
2023-04-19T08:19:17.550Z,7.00
2023-04-19T08:21:45.404Z,7.40
2023-04-19T08:24:13.143Z,6.20
2023-04-19T08:26:41.142Z,6.10
2023-04-19T08:29:09.415Z,6.70
2023-04-19T08:31:37.528Z,6.10
2023-04-19T08:34:05.580Z,7.80
2023-04-19T08:36:39.468Z,8.60
2023-04-19T08:39:24.418Z,8.90
2023-04-19T08:42:13.322Z,9.00
2023-04-19T08:45:23.486Z,7.80
2023-04-19T08:47:58.551Z,6.80
2023-04-19T08:53:24.195Z,6.20
2023-04-19T08:58:45.705Z,5.60
2023-04-19T09:01:33.852Z,6.10
2023-04-19T09:06:56.078Z,5.60
2023-04-19T09:11:59.340Z,5.60
2023-04-19T09:14:28.806Z,6.00
2023-04-19T09:17:15.599Z,5.50
2023-04-19T09:19:50.398Z,5.70
2023-04-19T09:22:19.273Z,5.50
2023-04-19T09:25:14.511Z,5.20
2023-04-19T09:27:36.551Z,5.90
2023-04-19T09:30:06.760Z,5.50
2023-04-19T09:32:49.265Z,6.50
2023-04-19T09:35:17.457Z,6.40
2023-04-19T09:38:06.197Z,6.80
2023-04-19T09:40:35.098Z,5.50
2023-04-19T09:43:17.872Z,5.30
2023-04-19T09:45:51.689Z,6.00
2023-04-19T09:48:19.807Z,5.50
2023-04-19T09:51:00.760Z,6.30
2023-04-19T09:53:34.502Z,5.80
2023-04-19T09:56:03.872Z,5.80
2023-04-19T09:58:42.523Z,5.90
2023-04-19T10:01:20.303Z,5.70
2023-04-19T10:03:50.963Z,6.20
2023-04-19T10:08:53.950Z,6.30
2023-04-19T10:11:22.748Z,6.60
2023-04-19T10:13:54.594Z,7.60
2023-04-19T10:16:22.485Z,7.40
2023-04-19T10:18:50.719Z,6.00
2023-04-19T10:21:19.825Z,6.20
2023-04-19T10:23:47.782Z,6.40
2023-04-19T10:26:16.137Z,5.90
2023-04-19T10:28:44.176Z,5.80
2023-04-19T10:31:16.363Z,7.90
2023-04-19T10:33:44.496Z,8.70
2023-04-19T10:36:15.764Z,7.30
2023-04-19T10:38:49.438Z,7.40
2023-04-19T10:41:19.239Z,7.50
2023-04-19T10:43:56.510Z,7.50
2023-04-19T10:46:29.087Z,9.40
2023-04-19T10:49:01.733Z,7.90
2023-04-19T10:51:34.064Z,8.50
2023-04-19T10:54:03.888Z,8.80
2023-04-19T10:56:34.468Z,11.70
2023-04-19T10:59:02.589Z,8.50
2023-04-19T11:01:46.543Z,8.70
2023-04-19T11:04:45.198Z,9.00
2023-04-19T11:07:13.096Z,9.60
2023-04-19T11:09:47.677Z,9.30
2023-04-19T11:12:19.200Z,9.70
2023-04-19T11:14:57.707Z,9.20
2023-04-19T11:17:32.195Z,10.10
2023-04-19T11:20:11.260Z,9.30
2023-04-19T11:22:45.210Z,8.60
2023-04-19T11:25:14.743Z,10.10
2023-04-19T11:27:44.696Z,9.70
2023-04-19T11:30:29.242Z,9.80
2023-04-19T11:32:57.648Z,10.60
2023-04-19T11:35:27.710Z,11.50
2023-04-19T11:37:57.020Z,9.80
2023-04-19T11:40:26.348Z,10.40
2023-04-19T11:42:56.505Z,11.80
2023-04-19T11:45:35.837Z,10.50
2023-04-19T11:48:08.375Z,12.80
2023-04-19T11:50:41.769Z,11.10
2023-04-19T11:53:22.247Z,10.60
2023-04-19T11:55:56.360Z,8.50
2023-04-19T11:58:49.659Z,9.10
2023-04-19T12:03:51.816Z,9.20
2023-04-19T12:06:29.201Z,9.60
2023-04-19T12:08:57.270Z,9.50
2023-04-19T12:11:41.694Z,10.60
2023-04-19T12:14:15.208Z,11.10
2023-04-19T12:16:45.036Z,11.20
2023-04-19T12:22:14.325Z,12.80
2023-04-19T12:24:42.966Z,12.20
2023-04-19T12:27:11.518Z,10.20
2023-04-19T12:29:39.550Z,11.20
2023-04-19T12:32:07.495Z,10.80
2023-04-19T12:34:35.465Z,11.50
2023-04-19T12:37:04.427Z,12.30
2023-04-19T12:39:32.214Z,11.80
2023-04-19T12:42:00.159Z,12.10
2023-04-19T12:44:27.895Z,13.90
2023-04-19T12:46:57.809Z,11.10
2023-04-19T12:49:25.754Z,12.70
2023-04-19T12:51:55.189Z,13.80
2023-04-19T12:54:24.373Z,11.70
2023-04-19T12:56:52.511Z,10.50
2023-04-19T12:59:22.099Z,10.60
2023-04-19T13:01:50.340Z,10.50
2023-04-19T13:04:18.695Z,10.40
2023-04-19T13:06:47.104Z,11.00
2023-04-19T13:09:15.391Z,10.10
2023-04-19T13:11:43.355Z,11.00
2023-04-19T13:14:11.174Z,11.90
2023-04-19T13:16:39.116Z,13.00
2023-04-19T13:19:06.961Z,13.80
2023-04-19T13:21:34.736Z,20.50
2023-04-19T13:24:02.594Z,23.80
2023-04-19T13:26:30.465Z,14.30
2023-04-19T13:28:58.455Z,12.10
2023-04-19T13:31:27.296Z,13.50
2023-04-19T13:33:55.565Z,10.60
2023-04-19T13:36:23.477Z,11.50
2023-04-19T13:38:51.798Z,11.60
2023-04-19T13:41:20.624Z,9.50
2023-04-19T13:43:48.622Z,10.10
2023-04-19T13:46:17.104Z,10.40
2023-04-19T13:48:44.989Z,10.60
2023-04-19T13:51:12.910Z,11.60
2023-04-19T13:53:40.824Z,10.30
2023-04-19T13:56:09.687Z,9.70
2023-04-19T13:58:38.299Z,10.50
2023-04-19T14:01:06.164Z,10.50
2023-04-19T14:03:34.119Z,10.50
2023-04-19T14:06:02.283Z,11.90
2023-04-19T14:08:30.133Z,14.60
2023-04-19T14:11:00.405Z,12.20
2023-04-19T14:13:28.460Z,12.40
2023-04-19T14:15:56.289Z,12.60
2023-04-19T14:18:24.183Z,11.20
2023-04-19T14:20:54.594Z,12.80
2023-04-19T14:23:22.422Z,13.50
2023-04-19T14:25:50.268Z,13.10
2023-04-19T14:28:18.560Z,12.90
2023-04-19T14:30:46.512Z,13.10
2023-04-19T14:33:14.424Z,15.10
2023-04-19T14:35:42.935Z,13.10
2023-04-19T14:38:11.213Z,14.40
2023-04-19T14:40:39.461Z,14.30
2023-04-19T14:43:07.231Z,16.60
2023-04-19T14:45:35.191Z,20.40
2023-04-19T14:48:03.219Z,18.60
2023-04-19T14:50:31.263Z,15.80
2023-04-19T14:52:59.098Z,16.10
2023-04-19T14:55:27.851Z,15.60
2023-04-19T14:57:56.476Z,16.90
2023-04-19T15:00:36.654Z,16.50
2023-04-19T15:03:05.052Z,19.90
2023-04-19T15:05:35.295Z,19.90
2023-04-19T15:08:03.711Z,19.80
2023-04-19T15:10:36.381Z,21.60
2023-04-19T15:13:06.146Z,21.80
2023-04-19T15:15:34.041Z,17.10
2023-04-19T15:18:02.783Z,18.50
2023-04-19T15:20:30.981Z,22.90
2023-04-19T15:22:58.766Z,23.20
2023-04-19T15:25:27.137Z,21.90
2023-04-19T15:27:55.675Z,21.10
2023-04-19T15:30:23.507Z,23.80
2023-04-19T15:32:51.350Z,25.70
2023-04-19T15:35:19.263Z,24.10
2023-04-19T15:37:47.724Z,28.80
2023-04-19T15:40:17.142Z,30.70
2023-04-19T15:42:45.493Z,27.70
2023-04-19T15:45:13.533Z,22.10
2023-04-19T15:47:41.400Z,20.10
2023-04-19T15:50:09.578Z,19.00
2023-04-19T15:52:37.461Z,19.10
2023-04-19T15:55:06.035Z,18.60
2023-04-19T15:57:34.214Z,19.00
2023-04-19T16:00:02.127Z,18.20
2023-04-19T16:02:30.109Z,19.40
2023-04-19T16:04:58.008Z,19.10
2023-04-19T16:07:26.042Z,17.90
2023-04-19T16:09:54.138Z,16.70
2023-04-19T16:12:22.293Z,17.50
2023-04-19T16:14:50.326Z,20.70
2023-04-19T16:17:18.728Z,19.90
2023-04-19T16:19:46.721Z,21.70
2023-04-19T16:22:14.653Z,18.70
2023-04-19T16:24:42.629Z,17.10
2023-04-19T16:27:10.528Z,16.10
2023-04-19T16:29:38.591Z,16.60
2023-04-19T16:32:07.078Z,16.50
2023-04-19T16:34:35.079Z,18.60
2023-04-19T16:37:03.430Z,17.60
2023-04-19T16:39:31.294Z,16.80
2023-04-19T16:41:59.276Z,15.20
2023-04-19T16:44:27.219Z,14.60
2023-04-19T16:46:55.781Z,13.50
2023-04-19T16:49:25.411Z,14.70
2023-04-19T16:51:53.528Z,12.90
2023-04-19T16:54:21.375Z,13.30
2023-04-19T16:56:49.170Z,13.00
2023-04-19T16:59:17.456Z,13.10
2023-04-19T17:01:45.704Z,11.80
2023-04-19T17:04:14.253Z,12.30
2023-04-19T17:06:42.334Z,12.80
2023-04-19T17:09:10.371Z,12.50
2023-04-19T17:11:38.445Z,13.00
2023-04-19T17:14:06.638Z,13.90
2023-04-19T17:16:34.693Z,13.00
2023-04-19T17:19:02.949Z,14.80
2023-04-19T17:21:31.520Z,15.10
2023-04-19T17:23:59.539Z,15.10
2023-04-19T17:26:28.224Z,13.20
2023-04-19T17:28:56.292Z,14.90
2023-04-19T17:31:25.393Z,14.80
2023-04-19T17:33:53.365Z,16.20
2023-04-19T17:36:21.334Z,16.00
2023-04-19T17:38:49.125Z,15.80
2023-04-19T17:41:17.214Z,17.70
2023-04-19T17:43:46.269Z,19.30
2023-04-19T17:46:14.938Z,31.60
2023-04-19T17:48:42.894Z,40.60
2023-04-19T17:51:10.985Z,30.40
2023-04-19T17:53:38.840Z,19.70
2023-04-19T17:56:07.029Z,18.00
2023-04-19T17:58:36.504Z,16.60
2023-04-19T18:01:04.716Z,20.50
2023-04-19T18:03:32.761Z,23.80
2023-04-19T18:06:01.510Z,21.50
2023-04-19T18:08:29.597Z,23.40
2023-04-19T18:10:57.596Z,26.20
2023-04-19T18:13:30.479Z,18.60
2023-04-19T18:16:02.306Z,16.70
2023-04-19T18:18:30.855Z,15.90
2023-04-19T18:20:59.909Z,15.80
2023-04-19T18:23:28.181Z,21.40
2023-04-19T18:26:04.674Z,17.80
2023-04-19T18:28:35.550Z,17.20
2023-04-19T18:31:05.407Z,17.10
2023-04-19T18:33:36.613Z,16.00
2023-04-19T18:36:05.964Z,31.90
2023-04-19T18:38:33.960Z,34.60
2023-04-19T18:41:01.878Z,56.70
2023-04-19T18:43:30.937Z,44.10
2023-04-19T18:46:00.272Z,17.90
2023-04-19T18:48:29.492Z,16.80
2023-04-19T18:50:57.546Z,16.40
2023-04-19T18:53:28.618Z,16.80
2023-04-19T18:56:00.245Z,19.30
2023-04-19T18:58:29.520Z,19.70
2023-04-19T19:00:59.200Z,20.30
2023-04-19T19:05:58.648Z,30.50
2023-04-19T19:08:26.732Z,33.90
2023-04-19T19:13:25.697Z,36.80
2023-04-19T19:15:53.547Z,55.60
2023-04-19T19:18:21.515Z,52.60
2023-04-19T19:20:51.445Z,48.60
2023-04-19T19:23:20.417Z,39.60
2023-04-19T19:25:53.912Z,34.60
2023-04-19T19:28:22.478Z,33.70
2023-04-19T19:30:51.109Z,36.40
2023-04-19T19:33:19.442Z,50.30
2023-04-19T19:35:47.302Z,46.40
2023-04-19T19:38:15.230Z,45.10
2023-04-19T19:41:11.125Z,44.90
2023-04-19T19:43:30.729Z,48.70
2023-04-19T19:45:59.716Z,49.10
2023-04-19T19:48:30.081Z,42.70
2023-04-19T19:56:00.474Z,48.80
2023-04-19T19:58:48.225Z,53.80
2023-04-19T20:01:16.755Z,51.00
2023-04-19T20:03:45.348Z,48.50
2023-04-19T20:08:48.374Z,42.50
2023-04-19T20:11:16.198Z,47.20
2023-04-19T20:13:44.135Z,49.80
2023-04-19T20:16:11.886Z,45.10
2023-04-19T20:18:42.525Z,38.00
2023-04-19T20:21:10.393Z,40.50
2023-04-19T20:23:39.428Z,44.70
2023-04-19T20:26:07.452Z,47.90
2023-04-19T20:28:35.400Z,43.70
2023-04-19T20:31:03.262Z,39.60
2023-04-19T20:33:31.116Z,41.40
2023-04-19T20:36:00.652Z,38.80
2023-04-19T20:38:28.634Z,37.20
2023-04-19T20:40:57.151Z,37.80
2023-04-19T20:43:25.031Z,34.70
2023-04-19T20:45:52.985Z,36.10
2023-04-19T20:48:20.947Z,33.20
2023-04-19T20:50:48.849Z,35.80
2023-04-19T20:53:16.851Z,38.20
2023-04-19T20:55:44.953Z,39.80
2023-04-19T20:58:12.775Z,47.20
2023-04-19T21:00:40.825Z,42.90
2023-04-19T21:03:08.993Z,41.70
2023-04-19T21:05:37.401Z,37.90
2023-04-19T21:08:05.374Z,37.10
2023-04-19T21:10:33.959Z,35.90
2023-04-19T21:13:01.780Z,34.30
2023-04-19T21:15:29.628Z,31.60
2023-04-19T21:17:57.433Z,33.90
2023-04-19T21:20:25.666Z,34.70
2023-04-19T21:22:53.476Z,33.60
2023-04-19T21:25:21.604Z,32.90
2023-04-19T21:27:49.451Z,32.50
2023-04-19T21:30:17.273Z,33.30
2023-04-19T21:32:45.084Z,35.10
2023-04-19T21:35:12.955Z,41.20
2023-04-19T21:37:40.736Z,46.30
2023-04-19T21:40:09.061Z,35.00
2023-04-19T21:42:36.812Z,29.60
2023-04-19T21:45:05.243Z,24.90
2023-04-19T21:47:33.224Z,26.50
2023-04-19T21:50:01.027Z,28.90
2023-04-19T21:52:28.981Z,28.10
2023-04-19T21:54:56.801Z,27.10
2023-04-19T21:57:26.943Z,26.20
2023-04-19T21:59:54.854Z,24.30
2023-04-19T22:02:22.874Z,23.70
2023-04-19T22:04:50.898Z,23.00
2023-04-19T22:07:19.435Z,23.00
2023-04-19T22:09:47.688Z,22.50
2023-04-19T22:12:15.603Z,20.50
2023-04-19T22:14:44.708Z,20.50
2023-04-19T22:17:12.513Z,21.50
2023-04-19T22:19:40.267Z,22.40
2023-04-19T22:22:08.008Z,22.70
2023-04-19T22:24:43.964Z,20.50
2023-04-19T22:27:21.380Z,21.10
2023-04-19T22:29:49.192Z,20.50
2023-04-19T22:32:17.305Z,20.60
2023-04-19T22:34:45.124Z,20.60
2023-04-19T22:37:12.956Z,19.80
2023-04-19T22:39:40.767Z,21.40
2023-04-19T22:42:08.814Z,20.90
2023-04-19T22:44:36.674Z,21.10
2023-04-19T22:47:05.033Z,20.90
2023-04-19T22:49:33.031Z,21.50
2023-04-19T22:52:00.841Z,20.40
2023-04-19T22:54:28.705Z,19.10
2023-04-19T22:56:56.729Z,20.50
2023-04-19T22:59:24.972Z,21.30
2023-04-19T23:01:52.771Z,22.60
2023-04-19T23:04:20.708Z,22.50
2023-04-19T23:06:48.788Z,21.20
2023-04-19T23:09:18.116Z,21.60
2023-04-19T23:11:47.702Z,23.60
2023-04-19T23:14:18.519Z,23.60
2023-04-19T23:16:46.557Z,24.10
2023-04-19T23:19:16.630Z,21.90
2023-04-19T23:21:44.688Z,19.40
2023-04-19T23:24:12.478Z,19.60
2023-04-19T23:26:40.510Z,21.30
2023-04-19T23:29:08.347Z,22.20
2023-04-19T23:31:36.215Z,22.20
2023-04-19T23:34:04.064Z,21.70
2023-04-19T23:36:31.951Z,21.20
2023-04-19T23:38:59.741Z,22.10
2023-04-19T23:41:27.680Z,22.80
2023-04-19T23:43:55.639Z,23.30
2023-04-19T23:46:23.485Z,23.40
2023-04-19T23:48:51.347Z,24.60
2023-04-19T23:51:19.181Z,24.40
2023-04-19T23:53:47.058Z,36.60
2023-04-19T23:56:14.821Z,33.90
2023-04-19T23:58:42.603Z,27.90
